Time;durP1;ratioP1;P1;durP2;ratioP2;P2;SDS_P1;SDS_P2;PMS_P1;PMS_P2;Temp;Humidity;BMP_temperature;BMP_pressure;BME280_temperature;BME280_humidity;BME280_pressure;Samples;Min_cycle;Max_cycle;Signal;HPM_P1;HPM_P2
2024/02/09 00:02:35;;;;;;;7.93;7.00;;;16.10;78.40;;;;;;5000282;28;20690;-78
2024/02/09 00:05:27;;;;;;;7.93;7.13;;;16.10;78.40;;;;;;5001267;28;20092;-78
2024/02/09 00:08:04;;;;;;;8.30;6.72;;;16.20;78.20;;;;;;5001050;28;20041;-78
2024/02/09 00:10:36;;;;;;;7.10;6.40;;;16.20;78.30;;;;;;5001485;28;20069;-77
2024/02/09 00:13:04;;;;;;;6.80;6.13;;;16.20;78.30;;;;;;5014473;28;20045;-77
2024/02/09 00:15:31;;;;;;;8.75;6.78;;;16.10;78.40;;;;;;5012229;28;20400;-77
2024/02/09 00:17:56;;;;;;;8.45;7.22;;;16.10;78.20;;;;;;5000939;28;20120;-77
2024/02/09 00:20:22;;;;;;;6.30;5.70;;;16.10;78.30;;;;;;4999755;28;20125;-77
2024/02/09 00:22:49;;;;;;;6.50;5.90;;;16.10;78.30;;;;;;5018983;28;20030;-77
2024/02/09 00:25:15;;;;;;;6.28;5.68;;;16.10;78.30;;;;;;5001163;28;20050;-76
2024/02/09 00:27:41;;;;;;;6.13;5.53;;;16.10;78.40;;;;;;5001102;28;20045;-77
2024/02/09 00:30:10;;;;;;;6.40;5.80;;;16.10;78.30;;;;;;5001062;28;20455;-77
2024/02/09 00:32:36;;;;;;;7.10;6.40;;;16.10;78.40;;;;;;5015440;28;20136;-78
2024/02/09 00:35:02;;;;;;;7.10;6.43;;;16.10;78.30;;;;;;4998981;28;20137;-78
2024/02/09 00:37:28;;;;;;;7.13;6.43;;;16.10;78.30;;;;;;5001297;28;20038;-78
2024/02/09 00:39:53;;;;;;;6.97;5.93;;;16.10;78.20;;;;;;5001456;28;20053;-79
2024/02/09 00:42:20;;;;;;;6.07;5.47;;;16.10;78.20;;;;;;5000529;28;20038;-81
2024/02/09 00:44:46;;;;;;;6.50;5.90;;;16.10;78.30;;;;;;4997598;28;20096;-81
2024/02/09 00:47:11;;;;;;;5.57;5.18;;;16.20;78.20;;;;;;4998980;28;20053;-81
2024/02/09 00:49:41;;;;;;;5.80;5.30;;;16.10;78.20;;;;;;5003762;28;20042;-81
2024/02/09 00:52:10;;;;;;;5.90;5.40;;;16.10;78.10;;;;;;5014818;28;20048;-80
2024/02/09 00:54:36;;;;;;;5.80;5.22;;;16.10;78.20;;;;;;5008185;28;20076;-80
2024/02/09 00:57:05;;;;;;;5.95;4.80;;;16.10;78.20;;;;;;5004517;28;20057;-80
2024/02/09 00:59:31;;;;;;;6.30;5.70;;;16.10;78.10;;;;;;5004764;28;20455;-80
2024/02/09 01:01:57;;;;;;;5.45;5.05;;;16.10;78.00;;;;;;5003138;28;20050;-80
2024/02/09 01:04:23;;;;;;;5.60;5.20;;;16.10;78.00;;;;;;5006189;28;20077;-82
2024/02/09 01:06:48;;;;;;;6.20;5.57;;;16.10;78.00;;;;;;5020495;28;20050;-80
2024/02/09 01:09:14;;;;;;;5.75;5.20;;;16.10;78.20;;;;;;5006757;28;20065;-81
2024/02/09 01:11:40;;;;;;;5.45;5.05;;;16.10;78.10;;;;;;5005510;28;20527;-81
2024/02/09 02:46:45;;;;;;;3.63;3.33;;;16.00;77.70;;;;;;4985146;28;20045;-80
2024/02/09 03:05:38;;;;;;;3.60;3.22;;;16.00;77.70;;;;;;5012651;28;20573;-80
2024/02/09 03:08:04;;;;;;;3.13;2.92;;;16.00;77.80;;;;;;5018157;28;20077;-80
2024/02/09 03:10:29;;;;;;;3.08;2.85;;;16.00;77.80;;;;;;5015076;28;20060;-80
2024/02/09 03:12:55;;;;;;;3.00;2.80;;;16.00;77.70;;;;;;5013471;28;20073;-80
2024/02/09 03:15:20;;;;;;;3.20;3.00;;;16.00;77.70;;;;;;4997757;28;20046;-80
2024/02/09 03:17:51;;;;;;;3.10;2.80;;;16.00;77.70;;;;;;5001279;28;20040;-81
2024/02/09 03:20:17;;;;;;;2.83;2.63;;;16.00;77.70;;;;;;4998825;28;20046;-80
2024/02/09 03:22:44;;;;;;;3.63;2.97;;;16.00;77.80;;;;;;5003708;28;20033;-81
2024/02/09 03:25:10;;;;;;;3.33;3.03;;;16.00;77.70;;;;;;4988504;28;20046;-81
2024/02/09 03:41:04;;;;;;;2.65;2.45;;;16.00;77.50;;;;;;3728068;28;22041;-81
2024/02/09 03:43:29;;;;;;;2.72;2.53;;;16.00;77.60;;;;;;4970503;28;20489;-81
2024/02/09 03:45:55;;;;;;;2.88;2.67;;;16.00;77.70;;;;;;5000475;28;20058;-81
2024/02/09 03:48:23;;;;;;;2.78;2.58;;;16.00;78.60;;;;;;5000814;28;20057;-81
2024/02/09 03:50:49;;;;;;;3.80;2.90;;;16.00;77.60;;;;;;5004101;28;20050;-81
2024/02/09 03:53:15;;;;;;;3.10;2.70;;;16.00;77.60;;;;;;5003606;28;20044;-80
2024/02/09 03:55:40;;;;;;;2.53;2.42;;;16.00;77.60;;;;;;4998254;28;20038;-80
2024/02/09 03:58:06;;;;;;;2.88;2.58;;;16.00;77.70;;;;;;4999244;28;20026;-80
2024/02/09 04:00:32;;;;;;;2.35;2.15;;;16.00;77.60;;;;;;5000811;28;20679;-81
2024/02/09 04:02:57;;;;;;;2.58;2.38;;;16.00;77.60;;;;;;5002301;28;20026;-80
2024/02/09 04:05:23;;;;;;;2.65;2.22;;;16.00;77.50;;;;;;4999801;28;20132;-80
2024/02/09 04:07:50;;;;;;;2.50;2.30;;;16.00;77.50;;;;;;5016779;28;20048;-81
2024/02/09 04:10:18;;;;;;;2.33;2.13;;;16.00;77.50;;;;;;4998609;28;20589;-81
2024/02/09 04:12:44;;;;;;;2.92;2.38;;;16.00;77.50;;;;;;5011030;28;20053;-80
2024/02/09 04:15:11;;;;;;;2.35;2.25;;;16.00;77.50;;;;;;4998493;28;20038;-80
2024/02/09 04:17:37;;;;;;;2.67;2.47;;;16.00;77.60;;;;;;5001252;28;20046;-80
2024/02/09 04:20:03;;;;;;;2.50;2.30;;;16.00;77.50;;;;;;4999383;28;20634;-80
2024/02/09 04:22:29;;;;;;;2.60;2.40;;;16.00;77.60;;;;;;5003747;28;20451;-80
2024/02/09 04:24:56;;;;;;;2.97;2.50;;;16.00;77.60;;;;;;5002929;28;20072;-80
2024/02/09 04:27:22;;;;;;;2.53;2.33;;;16.00;77.50;;;;;;4998961;28;20052;-81
2024/02/09 04:29:49;;;;;;;2.25;2.05;;;16.00;77.60;;;;;;4997963;28;20053;-81
2024/02/09 04:32:15;;;;;;;2.53;2.33;;;16.00;77.50;;;;;;4998034;28;20080;-80
2024/02/09 04:34:40;;;;;;;2.20;2.10;;;16.00;78.30;;;;;;5003670;28;20461;-81
2024/02/09 04:37:06;;;;;;;2.45;2.00;;;16.00;77.60;;;;;;4998970;28;20116;-80
2024/02/09 04:39:31;;;;;;;2.70;2.50;;;16.00;77.50;;;;;;4997408;28;20049;-81
2024/02/09 04:41:58;;;;;;;2.58;2.28;;;16.00;77.50;;;;;;4997636;28;20046;-81
2024/02/09 04:44:24;;;;;;;2.10;1.92;;;16.00;77.50;;;;;;5010140;28;20046;-80
2024/02/09 04:46:49;;;;;;;2.22;1.85;;;16.00;77.50;;;;;;5017734;28;20425;-80
2024/02/09 04:49:15;;;;;;;1.88;1.77;;;16.00;77.50;;;;;;5014636;28;20168;-80
2024/02/09 04:51:45;;;;;;;2.25;2.05;;;15.90;77.50;;;;;;4999840;28;20041;-80
2024/02/09 04:54:10;;;;;;;2.88;1.83;;;16.00;77.50;;;;;;4999927;28;20042;-80
2024/02/09 04:56:36;;;;;;;2.33;2.15;;;16.00;77.50;;;;;;5001106;28;20072;-79
2024/02/09 04:59:07;;;;;;;1.80;1.70;;;15.90;77.50;;;;;;5002044;28;20038;-79
2024/02/09 05:01:37;;;;;;;2.10;1.90;;;15.90;77.40;;;;;;4999262;28;20054;-80
2024/02/09 05:04:03;;;;;;;2.10;1.90;;;15.90;77.50;;;;;;4992940;28;20067;-79
2024/02/09 05:06:29;;;;;;;2.35;1.90;;;15.90;77.40;;;;;;5001046;28;20054;-81
2024/02/09 05:08:58;;;;;;;2.05;1.85;;;16.00;77.50;;;;;;5013530;28;20064;-80
2024/02/09 05:11:33;;;;;;;2.10;1.90;;;16.00;77.50;;;;;;5015989;28;20050;-80
2024/02/09 05:13:58;;;;;;;2.25;2.13;;;15.90;77.40;;;;;;5013615;28;20068;-80
2024/02/09 05:16:24;;;;;;;2.10;1.90;;;16.00;77.50;;;;;;5000513;28;20488;-80
2024/02/09 05:18:52;;;;;;;1.95;1.80;;;15.90;77.50;;;;;;4996699;28;20120;-79
2024/02/09 05:21:18;;;;;;;2.42;2.22;;;15.90;77.40;;;;;;4998561;28;20038;-79
2024/02/09 05:23:43;;;;;;;3.55;2.35;;;15.90;77.40;;;;;;4983019;28;20053;-79
2024/02/09 05:26:09;;;;;;;2.22;2.03;;;15.90;77.50;;;;;;5014928;28;20053;-79
2024/02/09 05:28:38;;;;;;;1.70;1.60;;;15.90;77.50;;;;;;5001706;28;20057;-80
2024/02/09 05:31:05;;;;;;;1.60;1.50;;;15.90;77.30;;;;;;5014256;28;20042;-79
2024/02/09 05:33:34;;;;;;;1.88;1.63;;;15.90;77.30;;;;;;5000729;28;20061;-79
2024/02/09 05:36:00;;;;;;;1.77;1.67;;;15.90;77.30;;;;;;4996058;28;20400;-79
2024/02/09 05:38:25;;;;;;;2.42;1.73;;;15.90;77.30;;;;;;4997536;28;20061;-79
2024/02/09 05:40:51;;;;;;;2.35;1.98;;;15.90;77.30;;;;;;5006810;28;20443;-79
2024/02/09 05:43:16;;;;;;;2.75;1.63;;;15.90;77.30;;;;;;5002095;28;20053;-79
2024/02/09 05:45:42;;;;;;;1.58;1.48;;;15.90;77.40;;;;;;5004025;28;20037;-80
2024/02/09 05:48:09;;;;;;;1.73;1.63;;;15.90;77.30;;;;;;5005433;28;20077;-80
2024/02/09 05:50:34;;;;;;;2.10;1.90;;;15.90;77.30;;;;;;5017813;28;20062;-80
2024/02/09 05:53:00;;;;;;;1.48;1.38;;;15.90;77.30;;;;;;5020691;28;20033;-79
2024/02/09 05:55:25;;;;;;;2.47;1.70;;;15.90;77.30;;;;;;5006333;28;20049;-79
2024/02/09 05:57:55;;;;;;;2.38;1.63;;;15.90;77.30;;;;;;5009142;28;20583;-79
2024/02/09 06:00:22;;;;;;;2.22;1.60;;;15.90;77.30;;;;;;5013998;28;20041;-79
2024/02/09 06:02:51;;;;;;;1.63;1.50;;;15.90;77.10;;;;;;5001109;28;20049;-78
2024/02/09 06:05:16;;;;;;;1.83;1.60;;;15.90;77.30;;;;;;4999837;28;20128;-79
2024/02/09 06:07:42;;;;;;;1.60;1.50;;;15.90;77.20;;;;;;5020225;28;20132;-80
2024/02/09 06:10:09;;;;;;;2.05;1.58;;;16.00;77.50;;;;;;5005365;28;20405;-80
2024/02/09 06:12:35;;;;;;;1.63;1.52;;;16.00;77.80;;;;;;5020712;28;20129;-78
2024/02/09 06:15:01;;;;;;;3.10;1.63;;;16.00;77.80;;;;;;5004128;28;20049;-77
2024/02/09 06:17:28;;;;;;;1.70;1.60;;;16.00;78.60;;;;;;5001732;28;20420;-77
2024/02/09 06:19:54;;;;;;;2.03;1.60;;;16.00;77.60;;;;;;5005087;28;20685;-77
2024/02/09 06:22:19;;;;;;;1.50;1.40;;;16.00;77.80;;;;;;4993568;28;20041;-78
2024/02/09 06:24:45;;;;;;;1.90;1.70;;;16.10;78.00;;;;;;5016006;28;21360;-78
2024/02/09 06:27:11;;;;;;;2.30;1.55;;;16.10;78.10;;;;;;5003936;28;20098;-77
2024/02/09 06:29:38;;;;;;;1.50;1.35;;;16.00;78.10;;;;;;5004141;28;20177;-77
2024/02/09 06:32:05;;;;;;;1.55;1.45;;;16.00;78.20;;;;;;5020968;28;20459;-77
2024/02/09 06:34:30;;;;;;;1.90;1.48;;;16.00;78.20;;;;;;5002172;28;20057;-79
2024/02/09 06:36:56;;;;;;;1.92;1.70;;;16.00;78.30;;;;;;5001459;28;20431;-78
2024/02/09 06:39:23;;;;;;;1.98;1.77;;;16.00;78.30;;;;;;5003139;28;20111;-76
2024/02/09 06:41:49;;;;;;;2.42;1.60;;;16.00;78.30;;;;;;5001586;28;20471;-76
2024/02/09 06:44:14;;;;;;;1.88;1.60;;;16.00;78.40;;;;;;5001383;28;20042;-77
2024/02/09 06:46:40;;;;;;;2.55;1.88;;;16.00;78.40;;;;;;5020065;28;20101;-76
2024/02/09 06:49:06;;;;;;;1.80;1.70;;;16.00;78.60;;;;;;5019102;28;20100;-76
2024/02/09 06:51:32;;;;;;;1.55;1.45;;;16.00;78.50;;;;;;5000953;28;20053;-76
2024/02/09 06:53:58;;;;;;;3.38;1.85;;;16.00;78.40;;;;;;4989597;28;20443;-76
2024/02/09 06:56:23;;;;;;;1.75;1.65;;;16.00;78.50;;;;;;5017055;28;20042;-76
2024/02/09 06:58:51;;;;;;;2.55;2.00;;;16.00;78.40;;;;;;4989125;28;20034;-76
2024/02/09 07:01:18;;;;;;;2.03;1.90;;;16.00;78.30;;;;;;5003803;28;20508;-76
2024/02/09 07:03:44;;;;;;;1.70;1.60;;;16.00;78.20;;;;;;5018508;28;20037;-76
2024/02/09 07:06:10;;;;;;;2.22;1.40;;;16.00;78.20;;;;;;5014808;28;20208;-76
2024/02/09 07:08:42;;;;;;;1.80;1.48;;;16.00;78.20;;;;;;5001920;28;20046;-76
2024/02/09 07:11:10;;;;;;;1.70;1.60;;;16.00;79.00;;;;;;5003338;28;20038;-76
2024/02/09 07:13:40;;;;;;;1.67;1.58;;;16.00;78.20;;;;;;5002494;28;22318;-76
2024/02/09 07:16:06;;;;;;;2.35;1.55;;;16.00;78.20;;;;;;5000976;28;20125;-76
2024/02/09 07:18:33;;;;;;;1.67;1.50;;;15.90;78.20;;;;;;5019407;28;20029;-76
2024/02/09 07:20:59;;;;;;;1.75;1.48;;;15.90;78.10;;;;;;4985635;28;20034;-76
2024/02/09 07:23:27;;;;;;;1.70;1.30;;;15.90;78.10;;;;;;5001670;28;20030;-76
2024/02/09 07:25:54;;;;;;;1.20;1.05;;;16.00;78.10;;;;;;5005104;28;20054;-76
2024/02/09 07:28:21;;;;;;;2.10;1.35;;;15.90;78.00;;;;;;5003832;28;20037;-76
2024/02/09 07:30:47;;;;;;;6.65;1.70;;;15.90;78.00;;;;;;5001801;28;20034;-76
2024/02/09 07:33:14;;;;;;;1.77;1.52;;;15.90;78.00;;;;;;5000265;28;20037;-76
2024/02/09 07:35:40;;;;;;;1.40;1.30;;;15.90;78.10;;;;;;4999246;28;20436;-75
2024/02/09 07:38:06;;;;;;;1.63;1.35;;;16.00;78.20;;;;;;5002836;28;20045;-77
2024/02/09 07:40:31;;;;;;;1.67;1.45;;;16.00;78.20;;;;;;5001533;28;20034;-77
2024/02/09 07:42:57;;;;;;;1.50;1.20;;;16.00;78.20;;;;;;5000394;28;20046;-77
2024/02/09 07:45:23;;;;;;;1.63;1.25;;;16.10;78.40;;;;;;5014761;28;21217;-77
2024/02/09 07:47:49;;;;;;;1.55;1.20;;;16.10;78.50;;;;;;5017017;28;20076;-75
2024/02/09 07:50:15;;;;;;;2.15;1.30;;;16.10;78.40;;;;;;5002834;28;20585;-76
2024/02/09 07:52:41;;;;;;;1.60;1.50;;;16.10;78.40;;;;;;5003559;28;20058;-76
2024/02/09 07:55:07;;;;;;;2.25;1.50;;;16.10;78.30;;;;;;5001561;28;20042;-75
2024/02/09 07:57:33;;;;;;;1.85;1.67;;;16.10;78.20;;;;;;5019332;28;20045;-75
2024/02/09 07:59:59;;;;;;;2.05;1.30;;;16.10;78.40;;;;;;5001728;28;20038;-75
2024/02/09 08:02:25;;;;;;;1.25;1.15;;;16.10;78.40;;;;;;5002307;28;20049;-75
2024/02/09 08:04:51;;;;;;;2.42;1.10;;;16.10;78.50;;;;;;5005185;28;20042;-75
2024/02/09 08:07:19;;;;;;;1.63;1.52;;;16.10;78.60;;;;;;5000229;28;20054;-75
2024/02/09 08:09:45;;;;;;;1.50;1.40;;;16.10;78.40;;;;;;5004481;28;20038;-76
2024/02/09 08:12:12;;;;;;;1.35;1.25;;;16.10;78.60;;;;;;5003209;28;20037;-76
2024/02/09 08:14:38;;;;;;;1.42;1.33;;;16.10;78.30;;;;;;5015129;28;20487;-75
2024/02/09 08:17:04;;;;;;;1.10;0.98;;;16.10;78.40;;;;;;5002392;28;20046;-75
2024/02/09 08:19:32;;;;;;;2.53;1.42;;;16.10;78.20;;;;;;4985177;28;20042;-75
2024/02/09 08:21:58;;;;;;;1.30;1.17;;;16.10;78.40;;;;;;5002870;28;20033;-75
2024/02/09 08:24:24;;;;;;;1.30;1.20;;;16.10;78.30;;;;;;5002585;28;20121;-75
2024/02/09 08:26:49;;;;;;;1.90;1.45;;;16.10;78.20;;;;;;5018037;28;20538;-75
2024/02/09 08:29:15;;;;;;;1.73;1.00;;;16.10;78.00;;;;;;5016243;28;20046;-75
2024/02/09 08:31:41;;;;;;;1.10;0.95;;;16.10;78.30;;;;;;5002065;28;20037;-76
2024/02/09 08:34:06;;;;;;;1.10;1.00;;;16.10;78.00;;;;;;5003270;28;20082;-76
2024/02/09 08:36:32;;;;;;;2.28;1.13;;;16.10;78.10;;;;;;5017339;28;20038;-75
2024/02/09 08:38:57;;;;;;;1.30;1.20;;;16.10;78.20;;;;;;5000668;28;20045;-75
2024/02/09 08:41:23;;;;;;;4.03;1.00;;;16.10;78.00;;;;;;5003476;28;20065;-75
2024/02/09 08:43:49;;;;;;;1.45;0.68;;;16.10;78.30;;;;;;5004367;28;20038;-76
2024/02/09 08:46:15;;;;;;;1.05;0.93;;;16.10;78.00;;;;;;5003990;28;20046;-76
2024/02/09 08:48:40;;;;;;;1.48;1.00;;;16.10;78.20;;;;;;5018121;28;20129;-76
2024/02/09 08:51:06;;;;;;;1.20;1.00;;;16.10;78.20;;;;;;5003539;28;20038;-76
2024/02/09 08:53:33;;;;;;;1.55;1.20;;;16.10;78.20;;;;;;5017070;28;20046;-75
2024/02/09 08:55:59;;;;;;;2.88;1.30;;;16.10;78.00;;;;;;4986364;28;20042;-75
2024/02/09 08:58:25;;;;;;;0.98;0.90;;;16.10;78.00;;;;;;5004589;28;20407;-76
2024/02/09 09:00:50;;;;;;;1.63;1.05;;;16.10;78.00;;;;;;5018508;28;20049;-76
2024/02/09 09:03:17;;;;;;;1.38;1.15;;;16.10;77.90;;;;;;5000753;28;20042;-76
2024/02/09 09:05:46;;;;;;;1.10;0.98;;;16.10;78.00;;;;;;5020269;28;20038;-76
2024/02/09 09:08:12;;;;;;;1.27;1.17;;;16.20;77.90;;;;;;5003346;28;20045;-76
2024/02/09 09:10:41;;;;;;;1.55;0.95;;;16.20;77.90;;;;;;5006092;28;20070;-76
2024/02/09 09:13:10;;;;;;;3.92;1.20;;;16.20;77.70;;;;;;5002699;28;20121;-76
2024/02/09 09:15:41;;;;;;;1.70;1.20;;;16.20;77.90;;;;;;5002805;28;20065;-76
2024/02/09 09:18:06;;;;;;;4.18;1.20;;;16.20;77.80;;;;;;5003532;28;20038;-76
2024/02/09 09:20:32;;;;;;;1.38;1.08;;;16.20;77.80;;;;;;5021530;28;20540;-76
2024/02/09 09:22:58;;;;;;;1.63;1.25;;;16.20;77.90;;;;;;5022938;28;20503;-75
2024/02/09 09:25:24;;;;;;;1.85;1.10;;;16.20;77.80;;;;;;5017100;28;20042;-76
2024/02/09 09:27:50;;;;;;;1.58;1.00;;;16.20;77.80;;;;;;5004003;28;20049;-77
2024/02/09 09:30:17;;;;;;;1.42;0.98;;;16.20;77.70;;;;;;5017534;28;20495;-76
2024/02/09 09:32:42;;;;;;;1.42;0.95;;;16.20;77.50;;;;;;5005525;28;20050;-77
2024/02/09 09:35:08;;;;;;;1.50;1.02;;;16.20;77.50;;;;;;5009099;28;20542;-76
2024/02/09 09:37:36;;;;;;;1.17;0.80;;;16.20;77.50;;;;;;5007244;28;20042;-76
2024/02/09 09:40:02;;;;;;;1.35;1.10;;;16.20;78.10;;;;;;5023676;28;20042;-75
2024/02/09 09:42:28;;;;;;;1.27;0.90;;;16.30;77.40;;;;;;5020714;28;20057;-76
2024/02/09 09:44:54;;;;;;;1.88;1.00;;;16.30;77.60;;;;;;5017120;28;20516;-76
2024/02/09 09:47:20;;;;;;;1.45;0.75;;;16.20;77.50;;;;;;5020354;28;20050;-76
2024/02/09 09:49:46;;;;;;;1.20;1.10;;;16.20;77.50;;;;;;5009268;28;20522;-76
2024/02/09 09:52:15;;;;;;;1.00;0.90;;;16.20;77.50;;;;;;5008333;28;20034;-76
2024/02/09 09:54:40;;;;;;;1.63;1.20;;;16.20;77.50;;;;;;5021275;28;20053;-76
2024/02/09 09:57:06;;;;;;;1.20;0.82;;;16.30;77.60;;;;;;4986741;28;20056;-76
2024/02/09 09:59:32;;;;;;;2.30;0.82;;;16.30;77.60;;;;;;4980146;28;20145;-77
2024/02/09 10:01:57;;;;;;;2.13;1.13;;;16.30;77.50;;;;;;5002873;28;20701;-76
2024/02/09 10:04:23;;;;;;;0.95;0.82;;;16.30;77.30;;;;;;5021854;28;20038;-76
2024/02/09 10:06:49;;;;;;;0.88;0.88;;;16.30;77.40;;;;;;5002096;28;20482;-76
2024/02/09 10:09:16;;;;;;;0.90;0.80;;;16.30;78.10;;;;;;5003051;28;20038;-77
2024/02/09 10:11:45;;;;;;;2.15;1.40;;;16.30;77.20;;;;;;5017680;28;20050;-77
2024/02/09 10:14:14;;;;;;;1.35;0.90;;;16.30;77.30;;;;;;5018318;28;20046;-76
2024/02/09 10:16:44;;;;;;;1.38;1.08;;;16.30;78.00;;;;;;5001606;28;20108;-76
2024/02/09 10:19:10;;;;;;;0.80;0.70;;;16.30;77.10;;;;;;5020985;28;20052;-77
2024/02/09 10:21:35;;;;;;;2.38;0.93;;;16.30;77.00;;;;;;5004934;28;20056;-77
2024/02/09 10:24:01;;;;;;;0.98;0.80;;;16.30;77.10;;;;;;5005692;28;20054;-77
2024/02/09 10:26:27;;;;;;;2.65;0.88;;;16.40;77.10;;;;;;5006177;28;20054;-77
2024/02/09 10:28:52;;;;;;;1.30;0.90;;;16.30;77.20;;;;;;5005331;28;20046;-77
2024/02/09 10:31:22;;;;;;;1.75;0.77;;;16.30;77.30;;;;;;5019180;28;20124;-76
2024/02/09 10:33:49;;;;;;;1.35;0.85;;;16.30;77.20;;;;;;5014907;28;20058;-77
2024/02/09 10:36:15;;;;;;;1.00;0.77;;;16.30;77.10;;;;;;5007206;28;20499;-77
2024/02/09 10:38:40;;;;;;;0.98;0.68;;;16.30;77.20;;;;;;5003712;28;20038;-77
2024/02/09 10:41:06;;;;;;;2.80;0.70;;;16.30;77.30;;;;;;5017715;28;20096;-76
2024/02/09 10:43:34;;;;;;;1.58;0.88;;;16.30;77.30;;;;;;4988660;28;20559;-76
2024/02/09 10:46:00;;;;;;;1.25;0.60;;;16.30;77.30;;;;;;5006389;28;20046;-76
2024/02/09 10:48:36;;;;;;;1.75;0.75;;;16.30;77.20;;;;;;5015539;28;20030;-78
2024/02/09 10:51:08;;;;;;;1.17;0.95;;;16.30;77.20;;;;;;5000777;28;20690;-78
2024/02/09 10:53:41;;;;;;;1.10;0.70;;;16.40;76.90;;;;;;5013416;28;20534;-79
2024/02/09 10:56:07;;;;;;;0.98;0.80;;;16.40;76.70;;;;;;5004627;28;20052;-79
2024/02/09 10:58:33;;;;;;;1.73;0.65;;;16.40;76.50;;;;;;4999782;28;20030;-79
2024/02/09 11:00:59;;;;;;;0.88;0.50;;;16.40;76.50;;;;;;4999546;28;20049;-79
2024/02/09 11:03:24;;;;;;;0.60;0.50;;;16.40;76.50;;;;;;4999314;28;20185;-79
2024/02/09 11:05:50;;;;;;;1.20;0.70;;;16.40;76.70;;;;;;5003656;28;20156;-79
2024/02/09 11:08:15;;;;;;;1.15;0.80;;;16.40;76.70;;;;;;4996832;28;20046;-79
2024/02/09 11:10:42;;;;;;;1.02;0.90;;;16.40;76.80;;;;;;4985255;28;20150;-79
2024/02/09 11:13:07;;;;;;;1.05;0.75;;;16.40;76.70;;;;;;4986400;28;20038;-79
2024/02/09 11:15:33;;;;;;;0.90;0.70;;;16.40;76.80;;;;;;5017692;28;20034;-79
2024/02/09 11:17:59;;;;;;;1.33;0.82;;;16.40;77.00;;;;;;5016187;28;20049;-79
2024/02/09 11:20:24;;;;;;;0.93;0.75;;;16.40;76.90;;;;;;5002447;28;20572;-79
2024/02/09 11:22:50;;;;;;;1.27;1.13;;;16.40;76.90;;;;;;5020043;28;20057;-79
2024/02/09 11:25:19;;;;;;;0.70;0.63;;;16.40;76.80;;;;;;5016997;28;20041;-79
2024/02/09 11:27:51;;;;;;;1.00;0.57;;;16.40;76.60;;;;;;5000427;28;20053;-79
2024/02/09 11:30:23;;;;;;;1.27;0.70;;;16.40;76.60;;;;;;5004916;28;20519;-79
2024/02/09 11:32:48;;;;;;;1.13;0.68;;;16.50;76.70;;;;;;5018018;28;20096;-79
2024/02/09 11:35:17;;;;;;;1.10;0.80;;;16.50;76.70;;;;;;5002923;28;20078;-79
2024/02/09 11:37:47;;;;;;;0.88;0.63;;;16.50;76.60;;;;;;4989099;28;20450;-79
2024/02/09 11:40:15;;;;;;;1.02;0.60;;;16.50;76.50;;;;;;5002235;28;20045;-79
2024/02/09 11:42:41;;;;;;;0.90;0.50;;;16.50;76.40;;;;;;5003183;28;20065;-79
2024/02/09 11:45:09;;;;;;;1.10;0.80;;;16.40;76.30;;;;;;5010156;28;20133;-79
2024/02/09 11:47:36;;;;;;;0.70;0.52;;;16.40;76.10;;;;;;4967821;28;22836;-79
2024/02/09 11:50:01;;;;;;;1.10;0.70;;;16.40;76.20;;;;;;5001145;28;20034;-79
2024/02/09 11:52:27;;;;;;;1.45;0.77;;;16.40;76.10;;;;;;4985110;28;20574;-79
2024/02/09 11:54:53;;;;;;;1.00;0.73;;;16.40;76.20;;;;;;5001495;28;20045;-79
2024/02/09 11:57:19;;;;;;;0.73;0.60;;;16.40;76.10;;;;;;5000632;28;20424;-79
2024/02/09 11:59:45;;;;;;;1.02;0.73;;;16.40;76.00;;;;;;5002076;28;20046;-79
2024/02/09 12:02:10;;;;;;;0.90;0.70;;;16.40;76.10;;;;;;5020285;28;20044;-79
2024/02/09 12:04:36;;;;;;;0.88;0.60;;;16.40;76.10;;;;;;4987715;28;20034;-79
2024/02/09 12:07:02;;;;;;;1.35;0.90;;;16.40;76.20;;;;;;4985687;28;20053;-78
2024/02/09 12:09:29;;;;;;;0.47;0.40;;;16.40;76.20;;;;;;4988004;28;20049;-79
2024/02/09 12:11:55;;;;;;;1.67;0.55;;;16.40;76.20;;;;;;5017744;28;20538;-79
2024/02/09 12:14:20;;;;;;;1.15;0.60;;;16.30;76.20;;;;;;5016433;28;20037;-79
2024/02/09 12:16:46;;;;;;;0.70;0.60;;;16.30;76.30;;;;;;5002265;28;21112;-79
2024/02/09 12:19:12;;;;;;;1.45;0.60;;;16.40;77.20;;;;;;4996672;28;20093;-79
2024/02/09 12:21:39;;;;;;;0.80;0.70;;;16.30;76.30;;;;;;4980372;28;20563;-79
2024/02/09 12:24:04;;;;;;;1.02;0.50;;;16.30;76.30;;;;;;5010100;28;20232;-79
2024/02/09 12:26:30;;;;;;;4.88;0.68;;;16.30;76.30;;;;;;4969076;28;20041;-79
2024/02/09 12:28:56;;;;;;;0.80;0.40;;;16.30;76.40;;;;;;4971899;28;20049;-79
2024/02/09 12:31:21;;;;;;;0.55;0.55;;;16.30;76.40;;;;;;5000199;28;20050;-79
2024/02/09 12:33:48;;;;;;;0.40;0.40;;;16.30;76.40;;;;;;5011190;28;20042;-79
2024/02/09 12:36:14;;;;;;;0.70;0.70;;;16.40;76.90;;;;;;4999194;28;20591;-79
2024/02/09 12:38:40;;;;;;;1.05;0.60;;;16.30;76.30;;;;;;5015741;28;20385;-82
2024/02/09 12:41:09;;;;;;;0.57;0.50;;;16.40;76.30;;;;;;5016021;28;20969;-83
2024/02/09 12:43:35;;;;;;;0.50;0.50;;;16.40;76.10;;;;;;5016908;28;20050;-82
2024/02/09 12:46:01;;;;;;;0.65;0.30;;;16.40;76.00;;;;;;5001288;28;20058;-82
2024/02/09 12:48:29;;;;;;;1.65;0.70;;;16.40;76.00;;;;;;5004683;28;20056;-82
2024/02/09 12:50:56;;;;;;;0.70;0.63;;;16.40;76.00;;;;;;5007779;28;20119;-82
2024/02/09 12:53:22;;;;;;;0.73;0.68;;;16.30;75.90;;;;;;5007912;28;20049;-82
2024/02/09 12:55:48;;;;;;;0.50;0.50;;;16.30;75.90;;;;;;5006209;28;20050;-82
2024/02/09 12:58:13;;;;;;;0.55;0.50;;;16.30;75.90;;;;;;5020874;28;20603;-82
2024/02/09 13:00:39;;;;;;;0.80;0.50;;;16.40;76.00;;;;;;5004749;28;20050;-82
2024/02/09 13:03:05;;;;;;;0.60;0.43;;;16.40;76.00;;;;;;5005714;28;20042;-82
2024/02/09 13:05:30;;;;;;;0.57;0.38;;;16.40;76.20;;;;;;5006230;28;20133;-80
2024/02/09 13:08:00;;;;;;;1.00;0.43;;;16.40;77.60;;;;;;5010822;28;20045;-80
2024/02/09 13:10:26;;;;;;;0.63;0.50;;;16.40;77.70;;;;;;5004704;28;20073;-79
2024/02/09 13:12:53;;;;;;;0.55;0.52;;;16.40;77.60;;;;;;5005978;28;20070;-80
2024/02/09 13:15:19;;;;;;;1.75;0.57;;;16.50;77.40;;;;;;5007550;28;20076;-80
2024/02/09 13:17:46;;;;;;;3.53;1.27;;;16.50;77.20;;;;;;5022938;28;20034;-79
2024/02/09 13:20:11;;;;;;;0.52;0.50;;;16.50;77.20;;;;;;5004499;28;20093;-80
2024/02/09 13:22:37;;;;;;;0.90;0.80;;;16.50;77.90;;;;;;5010793;28;20066;-80
2024/02/09 13:25:13;;;;;;;0.82;0.55;;;16.60;78.00;;;;;;5009206;28;20097;-80
2024/02/09 13:27:41;;;;;;;0.55;0.52;;;16.50;78.10;;;;;;5002413;28;20038;-80
2024/02/09 13:30:08;;;;;;;0.68;0.68;;;16.50;77.70;;;;;;5005175;28;20037;-80
2024/02/09 13:32:34;;;;;;;0.43;0.43;;;16.50;77.70;;;;;;5006114;28;20611;-80
2024/02/09 13:34:59;;;;;;;0.88;0.60;;;16.50;78.30;;;;;;5024063;28;20677;-80
2024/02/09 13:37:25;;;;;;;0.55;0.43;;;16.50;77.70;;;;;;5006472;28;20570;-79
2024/02/09 13:39:52;;;;;;;0.77;0.52;;;16.50;77.70;;;;;;5022465;28;20124;-80
2024/02/09 13:42:21;;;;;;;1.33;0.70;;;16.60;77.50;;;;;;5023275;28;20188;-80
2024/02/09 13:44:47;;;;;;;0.63;0.52;;;16.60;77.70;;;;;;5009366;28;20534;-80
2024/02/09 13:47:12;;;;;;;0.65;0.63;;;16.60;77.60;;;;;;5024077;28;20053;-80
2024/02/09 13:49:38;;;;;;;0.77;0.57;;;16.60;77.60;;;;;;5025072;28;20189;-79
2024/02/09 13:52:04;;;;;;;0.88;0.57;;;16.60;77.50;;;;;;4991281;28;20048;-80
2024/02/09 13:54:31;;;;;;;0.75;0.40;;;16.60;77.60;;;;;;5005607;28;20142;-82
2024/02/09 13:56:56;;;;;;;1.15;0.68;;;16.60;77.60;;;;;;5000929;28;20059;-82
2024/02/09 13:59:22;;;;;;;0.88;0.63;;;16.60;77.60;;;;;;5019326;28;20046;-80
2024/02/09 14:01:48;;;;;;;0.75;0.70;;;16.60;77.80;;;;;;5021923;28;20128;-80
2024/02/09 14:04:13;;;;;;;0.75;0.65;;;16.50;78.40;;;;;;5016583;28;20385;-82
2024/02/09 14:06:42;;;;;;;1.23;0.70;;;16.50;77.80;;;;;;5017310;28;20046;-80
2024/02/09 14:09:09;;;;;;;0.75;0.50;;;16.60;78.30;;;;;;5005810;28;20046;-81
2024/02/09 14:11:37;;;;;;;0.40;0.40;;;16.60;78.20;;;;;;5005534;28;20786;-79
2024/02/09 14:14:03;;;;;;;1.10;0.63;;;16.60;78.20;;;;;;4988772;28;20042;-80
2024/02/09 14:16:28;;;;;;;0.70;0.55;;;16.60;78.20;;;;;;5004560;28;20048;-81
2024/02/09 14:18:54;;;;;;;0.75;0.52;;;16.60;78.20;;;;;;5004632;28;20063;-81
2024/02/09 14:21:19;;;;;;;1.10;0.60;;;16.60;78.00;;;;;;5005932;28;20455;-81
2024/02/09 14:23:45;;;;;;;0.60;0.60;;;16.60;77.90;;;;;;5003034;28;20054;-80
2024/02/09 14:26:10;;;;;;;0.77;0.65;;;16.70;77.80;;;;;;5003781;28;20037;-80
2024/02/09 14:28:38;;;;;;;1.40;0.60;;;16.60;77.60;;;;;;5007175;28;20038;-79
2024/02/09 14:31:04;;;;;;;0.85;0.40;;;16.60;77.70;;;;;;5007092;28;20038;-80
2024/02/09 14:33:30;;;;;;;0.45;0.40;;;16.60;77.90;;;;;;5003447;28;20057;-79
2024/02/09 14:35:55;;;;;;;0.88;0.68;;;16.60;78.00;;;;;;5001964;28;20084;-80
2024/02/09 14:38:21;;;;;;;0.47;0.40;;;16.60;77.70;;;;;;5004612;28;20038;-80
2024/02/09 14:40:47;;;;;;;3.83;0.88;;;16.60;77.60;;;;;;5002529;28;20045;-80
2024/02/09 14:43:14;;;;;;;1.13;0.80;;;16.60;77.70;;;;;;5002733;28;20049;-80
2024/02/09 14:45:39;;;;;;;0.93;0.82;;;16.60;78.00;;;;;;4999369;28;20045;-80
2024/02/09 14:48:05;;;;;;;0.80;0.60;;;16.60;78.00;;;;;;5019280;28;20416;-80